Chl Innovator — 9VNG — position and weather

sailwx.info

Track history (hours):
 
Tides and Currents Weather Stations Pressure Air Temp Water Temp Dewpoint Dewpoint Depression Visibility Wind Speed Wind Dir Waves Ship Positions

Chl Innovator

Last reported at 2018-May-15 02:11 UTC. Time now 2018-May-21 09:16 UTC.
Position N 35°49' E 032°38'.

Length 176 m; draft 10.8 m.

Type: Cargo ship. MMSI: 563410000.

Date/timePositionNaut miles runAvg speedWind from/ knotsBaromVisibWave heightAir tempDewpointWater temp
2018-May-15 02:11N 35°49' E 032°38'1013.6
2018-May-15 01:26N 35°49' E 032°25'913.9
2018-May-15 00:45N 35°49' E 032°14'414.0
2018-May-15 00:30N 35°49' E 032°09'714.1
2018-May-15 00:00N 35°49' E 032°01'714.2
2018-May-14 23:30N 35°49' E 031°52'714.3
2018-May-14 23:00N 35°49' E 031°43'714.3
2018-May-14 22:30N 35°49' E 031°34'714.4
2018-May-14 22:00N 35°49' E 031°25'714.3
2018-May-14 21:30N 35°49' E 031°16'  
2018-May-12 10:56N 35°50' E 014°50'613.0
2018-May-12 10:30N 35°50' E 014°43'611.1
2018-May-12 09:59N 35°50' E 014°36'0 0.6
2018-May-12 09:27N 35°49' E 014°35'0 0.0
2018-May-12 08:57N 35°49' E 014°35'0 0.0
2018-May-12 08:30N 35°49' E 014°35'0 0.0
2018-May-12 08:00N 35°49' E 014°35'0 0.0
2018-May-12 04:15N 35°49' E 014°35'0 0.0
2018-May-12 02:39N 35°50' E 014°35'0 0.0
2018-May-12 02:21N 35°49' E 014°35'0 0.0
2018-May-12 00:21N 35°49' E 014°35'0 0.0
2018-May-11 23:39N 35°49' E 014°35'0 0.0
2018-May-11 23:15N 35°50' E 014°35'0 0.0
2018-May-11 22:57N 35°49' E 014°35'0 0.0
2018-May-11 22:30N 35°50' E 014°35'0 0.0
2018-May-11 21:57N 35°50' E 014°35'0 0.0
2018-May-11 21:24N 35°50' E 014°35'0 0.1
2018-May-11 21:00N 35°49' E 014°35'0 0.3
2018-May-11 20:29N 35°50' E 014°35'2 3.2
2018-May-11 20:00N 35°49' E 014°37'3 5.7
2018-May-11 19:30N 35°48' E 014°41'0 0.6
2018-May-11 18:59N 35°48' E 014°41'0 0.5
2018-May-11 18:27N 35°48' E 014°41'0 0.5
2018-May-11 17:59N 35°49' E 014°41'0 0.4
2018-May-11 17:29N 35°49' E 014°41'0 0.5
2018-May-11 17:00N 35°49' E 014°41'1 3.0
2018-May-11 16:30N 35°50' E 014°42'710.5
2018-May-11 15:53N 35°53' E 014°49'2 3.5
2018-May-11 15:16N 35°53' E 014°52'0 0.0
2018-May-11 14:58N 35°53' E 014°52'0 0.0
2018-May-11 14:25N 35°53' E 014°52'0 0.0
2018-May-11 13:58N 35°53' E 014°52'0 0.0
2018-May-11 13:28N 35°53' E 014°52'0 0.0
2018-May-11 11:52N 35°53' E 014°52'0 0.0
2018-May-11 11:25N 35°53' E 014°52'0 0.0
2018-May-11 10:22N 35°53' E 014°52'0 0.0
2018-May-11 09:40N 35°53' E 014°52'0 0.0
2018-May-11 09:19N 35°53' E 014°52'0 0.1
2018-May-11 07:54N 35°53' E 014°52'3 7.3
2018-May-11 07:27N 35°54' E 014°48'612.0
2018-May-11 06:59N 35°58' E 014°43'611.9
2018-May-11 06:30N 36°01' E 014°37'611.8
2018-May-11 06:00N 36°05' E 014°31'611.8
2018-May-11 05:30N 36°07' E 014°25'611.4
2018-May-11 05:00N 36°10' E 014°19'510.8
2018-May-11 04:30N 36°12' E 014°13'611.0
2018-May-11 04:00N 36°15' E 014°06'511.3
2018-May-11 03:30N 36°17' E 014°00'611.4
2018-May-11 02:58N 36°19' E 013°53'511.5
2018-May-11 02:30N 36°22' E 013°47'611.5
2018-May-11 02:00N 36°24' E 013°40'611.4
2018-May-11 01:28N 36°26' E 013°34'711.3
2018-May-11 00:49N 36°29' E 013°25'1110.8
2018-May-10 23:49N 36°33' E 013°13'510.7
2018-May-10 23:22N 36°35' E 013°07'410.6
2018-May-10 23:00N 36°37' E 013°03'59711.7
2018-May-08 19:53N 36°43' E 000°38'913.2
2018-May-08 19:13N 36°42' E 000°27'313.0
2018-May-08 19:00N 36°41' E 000°24'612.8
2018-May-08 18:30N 36°40' E 000°16'712.8
2018-May-08 17:59N 36°39' E 000°08'3512.6
2018-May-08 15:13N 36°33' W 000°35'21813.3
2018-May-07 22:47N 35°59' W 005°02'414.1
2018-May-07 22:30N 35°58' W 005°07'714.8
2018-May-07 22:01N 35°58' W 005°16'815.5
2018-May-07 21:31N 35°57' W 005°26'15613.1
2018-May-07 09:36N 36°25' W 008°36'112.6
2018-May-07 09:30N 36°25' W 008°38'1412.5
2018-May-07 08:24N 36°29' W 008°54'512.7
2018-May-07 08:00N 36°30' W 009°00'1712.3
2018-May-07 06:35N 36°37' W 009°20'212.9
2018-May-07 06:26N 36°38' W 009°22'612.8
2018-May-07 05:58N 36°43' W 009°27'612.9
2018-May-07 05:29N 36°47' W 009°32'712.5
2018-May-07 04:57N 36°54' W 009°35'612.9
2018-May-07 04:30N 36°59' W 009°37'813.0
2018-May-07 03:52N 37°07' W 009°40'513.2
2018-May-07 03:30N 37°12' W 009°41'713.4
2018-May-07 03:00N 37°18' W 009°44'613.0
2018-May-07 02:30N 37°25' W 009°46'713.1
2018-May-07 02:00N 37°31' W 009°48'713.2
2018-May-07 01:30N 37°37' W 009°50'713.2
2018-May-07 01:00N 37°44' W 009°52'613.0
2018-May-07 00:30N 37°50' W 009°53'612.8
2018-May-07 00:00N 37°57' W 009°54'612.9
2018-May-06 23:30N 38°03' W 009°56'612.5
2018-May-06 23:00N 38°09' W 009°58'714.3
2018-May-06 22:30N 38°16' W 010°00'611.3
2018-May-06 22:00N 38°21' W 010°02'612.9
2018-May-06 21:30N 38°28' W 010°04'612.9
2018-May-06 21:00N 38°34' W 010°06'713.2
2018-May-06 20:30N 38°40' W 010°08'713.2
2018-May-06 20:00N 38°47' W 010°08'713.0
2018-May-06 19:30N 38°53' W 010°09'612.8
2018-May-06 19:00N 38°60' W 010°09'613.0
2018-May-06 18:30N 39°06' W 010°09'712.8
2018-May-06 17:59N 39°13' W 010°09'613.4
2018-May-06 17:30N 39°19' W 010°08'713.3
2018-May-06 17:00N 39°26' W 010°07'713.4
2018-May-06 16:30N 39°33' W 010°08'713.4
2018-May-06 16:00N 39°39' W 010°08'713.3
2018-May-06 15:30N 39°46' W 010°08'713.5
2018-May-06 15:00N 39°53' W 010°08'1113.4
2018-May-06 14:10N 40°04' W 010°09'5913.4
2018-May-06 09:44N 41°03' W 010°09'313.0
2018-May-06 09:28N 41°07' W 010°10'612.9
2018-May-06 09:00N 41°13' W 010°10'913.3
2018-May-06 08:21N 41°21' W 010°10'  
Track history (hours):
 
Tides and Currents Weather Stations Pressure Air Temp Water Temp Dewpoint Dewpoint Depression Visibility Wind Speed Wind Dir Waves Ship Positions

Chl Innovator

Last reported at 2018-May-15 02:11 UTC. Time now 2018-May-21 09:16 UTC.
Position N 35°49' E 032°38'.

Length 176 m; draft 10.8 m.

Type: Cargo ship. MMSI: 563410000.

Date/timePositionNaut miles runAvg speedWind from/ knotsBaromVisibWave heightAir tempDewpointWater temp
2018-May-15 02:11N 35°49' E 032°38'1013.6
2018-May-15 01:26N 35°49' E 032°25'913.9
2018-May-15 00:45N 35°49' E 032°14'414.0
2018-May-15 00:30N 35°49' E 032°09'714.1
2018-May-15 00:00N 35°49' E 032°01'714.2
2018-May-14 23:30N 35°49' E 031°52'714.3
2018-May-14 23:00N 35°49' E 031°43'714.3
2018-May-14 22:30N 35°49' E 031°34'714.4
2018-May-14 22:00N 35°49' E 031°25'714.3
2018-May-14 21:30N 35°49' E 031°16'  
2018-May-12 10:56N 35°50' E 014°50'613.0
2018-May-12 10:30N 35°50' E 014°43'611.1
2018-May-12 09:59N 35°50' E 014°36'0 0.6
2018-May-12 09:27N 35°49' E 014°35'0 0.0
2018-May-12 08:57N 35°49' E 014°35'0 0.0
2018-May-12 08:30N 35°49' E 014°35'0 0.0
2018-May-12 08:00N 35°49' E 014°35'0 0.0
2018-May-12 04:15N 35°49' E 014°35'0 0.0
2018-May-12 02:39N 35°50' E 014°35'0 0.0
2018-May-12 02:21N 35°49' E 014°35'0 0.0
2018-May-12 00:21N 35°49' E 014°35'0 0.0
2018-May-11 23:39N 35°49' E 014°35'0 0.0
2018-May-11 23:15N 35°50' E 014°35'0 0.0
2018-May-11 22:57N 35°49' E 014°35'0 0.0
2018-May-11 22:30N 35°50' E 014°35'0 0.0
2018-May-11 21:57N 35°50' E 014°35'0 0.0
2018-May-11 21:24N 35°50' E 014°35'0 0.1
2018-May-11 21:00N 35°49' E 014°35'0 0.3
2018-May-11 20:29N 35°50' E 014°35'2 3.2
2018-May-11 20:00N 35°49' E 014°37'3 5.7
2018-May-11 19:30N 35°48' E 014°41'0 0.6
2018-May-11 18:59N 35°48' E 014°41'0 0.5
2018-May-11 18:27N 35°48' E 014°41'0 0.5
2018-May-11 17:59N 35°49' E 014°41'0 0.4
2018-May-11 17:29N 35°49' E 014°41'0 0.5
2018-May-11 17:00N 35°49' E 014°41'1 3.0
2018-May-11 16:30N 35°50' E 014°42'710.5
2018-May-11 15:53N 35°53' E 014°49'2 3.5
2018-May-11 15:16N 35°53' E 014°52'0 0.0
2018-May-11 14:58N 35°53' E 014°52'0 0.0
2018-May-11 14:25N 35°53' E 014°52'0 0.0
2018-May-11 13:58N 35°53' E 014°52'0 0.0
2018-May-11 13:28N 35°53' E 014°52'0 0.0
2018-May-11 11:52N 35°53' E 014°52'0 0.0
2018-May-11 11:25N 35°53' E 014°52'0 0.0
2018-May-11 10:22N 35°53' E 014°52'0 0.0
2018-May-11 09:40N 35°53' E 014°52'0 0.0
2018-May-11 09:19N 35°53' E 014°52'0 0.1
2018-May-11 07:54N 35°53' E 014°52'3 7.3
2018-May-11 07:27N 35°54' E 014°48'612.0
2018-May-11 06:59N 35°58' E 014°43'611.9
2018-May-11 06:30N 36°01' E 014°37'611.8
2018-May-11 06:00N 36°05' E 014°31'611.8
2018-May-11 05:30N 36°07' E 014°25'611.4
2018-May-11 05:00N 36°10' E 014°19'510.8
2018-May-11 04:30N 36°12' E 014°13'611.0
2018-May-11 04:00N 36°15' E 014°06'511.3
2018-May-11 03:30N 36°17' E 014°00'611.4
2018-May-11 02:58N 36°19' E 013°53'511.5
2018-May-11 02:30N 36°22' E 013°47'611.5
2018-May-11 02:00N 36°24' E 013°40'611.4
2018-May-11 01:28N 36°26' E 013°34'711.3
2018-May-11 00:49N 36°29' E 013°25'1110.8
2018-May-10 23:49N 36°33' E 013°13'510.7
2018-May-10 23:22N 36°35' E 013°07'410.6
2018-May-10 23:00N 36°37' E 013°03'59711.7
2018-May-08 19:53N 36°43' E 000°38'913.2
2018-May-08 19:13N 36°42' E 000°27'313.0
2018-May-08 19:00N 36°41' E 000°24'612.8
2018-May-08 18:30N 36°40' E 000°16'712.8
2018-May-08 17:59N 36°39' E 000°08'3512.6
2018-May-08 15:13N 36°33' W 000°35'21813.3
2018-May-07 22:47N 35°59' W 005°02'414.1
2018-May-07 22:30N 35°58' W 005°07'714.8
2018-May-07 22:01N 35°58' W 005°16'815.5
2018-May-07 21:31N 35°57' W 005°26'15613.1
2018-May-07 09:36N 36°25' W 008°36'112.6
2018-May-07 09:30N 36°25' W 008°38'1412.5
2018-May-07 08:24N 36°29' W 008°54'512.7
2018-May-07 08:00N 36°30' W 009°00'1712.3
2018-May-07 06:35N 36°37' W 009°20'212.9
2018-May-07 06:26N 36°38' W 009°22'612.8
2018-May-07 05:58N 36°43' W 009°27'612.9
2018-May-07 05:29N 36°47' W 009°32'712.5
2018-May-07 04:57N 36°54' W 009°35'612.9
2018-May-07 04:30N 36°59' W 009°37'813.0
2018-May-07 03:52N 37°07' W 009°40'513.2
2018-May-07 03:30N 37°12' W 009°41'713.4
2018-May-07 03:00N 37°18' W 009°44'613.0
2018-May-07 02:30N 37°25' W 009°46'713.1
2018-May-07 02:00N 37°31' W 009°48'713.2
2018-May-07 01:30N 37°37' W 009°50'713.2
2018-May-07 01:00N 37°44' W 009°52'613.0
2018-May-07 00:30N 37°50' W 009°53'612.8
2018-May-07 00:00N 37°57' W 009°54'612.9
2018-May-06 23:30N 38°03' W 009°56'612.5
2018-May-06 23:00N 38°09' W 009°58'714.3
2018-May-06 22:30N 38°16' W 010°00'611.3
2018-May-06 22:00N 38°21' W 010°02'612.9
2018-May-06 21:30N 38°28' W 010°04'612.9
2018-May-06 21:00N 38°34' W 010°06'713.2
2018-May-06 20:30N 38°40' W 010°08'713.2
2018-May-06 20:00N 38°47' W 010°08'713.0
2018-May-06 19:30N 38°53' W 010°09'612.8
2018-May-06 19:00N 38°60' W 010°09'613.0
2018-May-06 18:30N 39°06' W 010°09'712.8
2018-May-06 17:59N 39°13' W 010°09'613.4
2018-May-06 17:30N 39°19' W 010°08'713.3
2018-May-06 17:00N 39°26' W 010°07'713.4
2018-May-06 16:30N 39°33' W 010°08'713.4
2018-May-06 16:00N 39°39' W 010°08'713.3
2018-May-06 15:30N 39°46' W 010°08'713.5
2018-May-06 15:00N 39°53' W 010°08'1113.4
2018-May-06 14:10N 40°04' W 010°09'5913.4
2018-May-06 09:44N 41°03' W 010°09'313.0
2018-May-06 09:28N 41°07' W 010°10'612.9
2018-May-06 09:00N 41°13' W 010°10'913.3
2018-May-06 08:21N 41°21' W 010°10'  

Dump ship's entire track history